Time;durP1;ratioP1;P1;durP2;ratioP2;P2;SDS_P1;SDS_P2;PMS_P1;PMS_P2;Temp;Humidity;BMP_temperature;BMP_pressure;BME280_temperature;BME280_humidity;BME280_pressure;Samples;Min_cycle;Max_cycle;Signal;HPM_P1;HPM_P2
2021/12/14 00:02:05;;;;;;;74.03;38.33;;;;;;;;;;4983584;28;20063;-43
2021/12/14 00:04:33;;;;;;;85.28;40.50;;;;;;;;;;4983274;28;20105;-42
2021/12/14 00:07:01;;;;;;;103.20;45.30;;;;;;;;;;4987279;28;20034;-43
2021/12/14 00:09:32;;;;;;;95.75;43.35;;;;;;;;;;5011133;28;20022;-43
2021/12/14 00:17:21;;;;;;;98.88;43.42;;;;;;;;;;5010804;28;20143;-42
2021/12/14 00:19:48;;;;;;;90.77;41.90;;;;;;;;;;5010939;28;20034;-42
2021/12/14 00:24:52;;;;;;;90.88;41.42;;;;;;;;;;5010772;28;20054;-44
2021/12/14 00:27:18;;;;;;;96.22;44.17;;;;;;;;;;5012908;28;20022;-43
2021/12/14 00:29:47;;;;;;;90.22;44.53;;;;;;;;;;5015308;28;20470;-43
2021/12/14 00:32:23;;;;;;;89.60;45.00;;;;;;;;;;5016427;28;20117;-42
2021/12/14 00:34:50;;;;;;;96.35;44.72;;;;;;;;;;5016551;28;20048;-42
2021/12/14 00:37:18;;;;;;;89.80;44.78;;;;;;;;;;5016436;28;20083;-42
2021/12/14 00:39:46;;;;;;;90.70;45.28;;;;;;;;;;5016414;28;20050;-44
2021/12/14 00:42:12;;;;;;;92.47;44.75;;;;;;;;;;5016612;28;20426;-43
2021/12/14 00:44:39;;;;;;;97.25;45.78;;;;;;;;;;5016247;28;20030;-44
2021/12/14 00:47:05;;;;;;;97.35;43.45;;;;;;;;;;5016585;28;20467;-43
2021/12/14 00:49:34;;;;;;;99.75;48.78;;;;;;;;;;5016347;28;20057;-42
2021/12/14 00:52:01;;;;;;;107.47;52.75;;;;;;;;;;5016240;28;20030;-42
2021/12/14 00:54:27;;;;;;;111.72;49.95;;;;;;;;;;5016141;28;20156;-44
2021/12/14 00:56:54;;;;;;;119.68;56.53;;;;;;;;;;5016217;28;20030;-43
2021/12/14 00:59:22;;;;;;;110.82;51.40;;;;;;;;;;5016148;28;20026;-43
2021/12/14 01:01:53;;;;;;;121.20;55.13;;;;;;;;;;5016143;28;20022;-43
2021/12/14 01:04:25;;;;;;;128.90;58.70;;;;;;;;;;5015996;28;20026;-44
2021/12/14 01:06:52;;;;;;;133.02;58.30;;;;;;;;;;5016045;28;20029;-43
2021/12/14 01:09:21;;;;;;;139.43;63.47;;;;;;;;;;5015929;28;20049;-43
2021/12/14 01:11:48;;;;;;;153.80;64.28;;;;;;;;;;5015903;28;20378;-43
2021/12/14 01:14:23;;;;;;;143.23;61.67;;;;;;;;;;5015690;28;20510;-43
2021/12/14 01:17:06;;;;;;;124.20;53.95;;;;;;;;;;5015574;28;20064;-42
2021/12/14 01:19:36;;;;;;;97.85;41.03;;;;;;;;;;5014621;28;20030;-43
2021/12/14 01:25:00;;;;;;;95.13;42.47;;;;;;;;;;5015891;28;20554;-42
2021/12/14 01:27:52;;;;;;;89.00;40.05;;;;;;;;;;5015332;28;20439;-42
2021/12/14 01:30:43;;;;;;;82.50;38.97;;;;;;;;;;4993797;28;20400;-42
2021/12/14 01:33:13;;;;;;;76.75;38.35;;;;;;;;;;4993807;28;20031;-42
2021/12/14 01:35:41;;;;;;;77.03;34.00;;;;;;;;;;4993840;28;20038;-42
2021/12/14 01:40:56;;;;;;;93.20;36.50;;;;;;;;;;4993272;28;20041;-43
2021/12/14 01:43:27;;;;;;;82.70;32.90;;;;;;;;;;4993454;28;20046;-43
2021/12/14 01:45:54;;;;;;;85.88;32.30;;;;;;;;;;4993814;28;20042;-43
2021/12/14 01:48:20;;;;;;;81.68;29.92;;;;;;;;;;4993492;28;20062;-43
2021/12/14 01:50:52;;;;;;;94.13;37.55;;;;;;;;;;4993500;28;20023;-44
2021/12/14 01:53:20;;;;;;;80.78;35.60;;;;;;;;;;4993482;28;20038;-42
2021/12/14 01:55:52;;;;;;;83.97;31.77;;;;;;;;;;4992512;28;20117;-42
2021/12/14 01:58:19;;;;;;;65.97;30.30;;;;;;;;;;4993429;28;20414;-42
2021/12/14 02:00:50;;;;;;;65.35;27.20;;;;;;;;;;4993440;28;20057;-42
2021/12/14 02:03:16;;;;;;;60.47;25.75;;;;;;;;;;4993233;28;20037;-42
2021/12/14 02:05:45;;;;;;;54.33;23.40;;;;;;;;;;5011360;28;20037;-44
2021/12/14 02:08:19;;;;;;;56.60;23.75;;;;;;;;;;5034654;28;20029;-43
2021/12/14 02:10:45;;;;;;;56.97;23.50;;;;;;;;;;5034784;28;20486;-43
2021/12/14 02:13:11;;;;;;;58.25;24.75;;;;;;;;;;5034333;28;20033;-43
2021/12/14 02:15:42;;;;;;;59.00;24.50;;;;;;;;;;5034197;28;20034;-43
2021/12/14 02:18:11;;;;;;;53.17;23.45;;;;;;;;;;5034201;28;20117;-42
2021/12/14 02:20:38;;;;;;;55.60;24.10;;;;;;;;;;5034436;28;20013;-42
2021/12/14 02:23:06;;;;;;;58.75;23.67;;;;;;;;;;5034244;28;20033;-42
2021/12/14 02:25:32;;;;;;;52.83;22.27;;;;;;;;;;5034326;28;20064;-43
2021/12/14 02:28:01;;;;;;;58.63;23.27;;;;;;;;;;5034379;28;20032;-42
2021/12/14 02:30:28;;;;;;;57.28;21.83;;;;;;;;;;5034105;28;20021;-43
2021/12/14 02:32:55;;;;;;;60.60;21.55;;;;;;;;;;5034135;28;20029;-42
2021/12/14 02:35:23;;;;;;;75.15;25.73;;;;;;;;;;5033885;28;20029;-42
2021/12/14 02:37:51;;;;;;;73.45;26.77;;;;;;;;;;5034030;28;20469;-42
2021/12/14 02:40:20;;;;;;;79.22;26.75;;;;;;;;;;5034014;28;20101;-42
2021/12/14 02:42:50;;;;;;;84.68;25.70;;;;;;;;;;5034095;28;20021;-42
2021/12/14 02:45:17;;;;;;;80.65;27.50;;;;;;;;;;5033823;28;20370;-42
2021/12/14 02:47:43;;;;;;;78.90;30.02;;;;;;;;;;5033815;28;20029;-42
2021/12/14 02:50:10;;;;;;;81.25;30.23;;;;;;;;;;5033804;28;20466;-42
2021/12/14 02:52:37;;;;;;;89.97;33.63;;;;;;;;;;5033127;28;20067;-42
2021/12/14 02:55:12;;;;;;;89.00;29.92;;;;;;;;;;5033719;28;20033;-42
2021/12/14 02:57:40;;;;;;;70.00;27.00;;;;;;;;;;5033870;28;20028;-42
2021/12/14 03:00:09;;;;;;;80.93;29.48;;;;;;;;;;5033802;28;20538;-42
2021/12/14 03:02:36;;;;;;;74.68;25.70;;;;;;;;;;5033558;28;20040;-42
2021/12/14 03:05:09;;;;;;;63.75;24.25;;;;;;;;;;5033582;28;20022;-42
2021/12/14 03:07:42;;;;;;;73.60;25.08;;;;;;;;;;5033826;28;20084;-42
2021/12/14 03:13:02;;;;;;;63.50;22.83;;;;;;;;;;5011607;28;20026;-43
2021/12/14 03:15:32;;;;;;;57.63;23.10;;;;;;;;;;5011454;28;20058;-50
2021/12/14 03:18:00;;;;;;;74.35;25.08;;;;;;;;;;5011647;28;20046;-43
2021/12/14 03:20:28;;;;;;;64.40;23.27;;;;;;;;;;4995175;28;20037;-45
2021/12/14 03:23:03;;;;;;;75.18;26.92;;;;;;;;;;5011760;28;20056;-41
2021/12/14 03:25:30;;;;;;;70.90;25.20;;;;;;;;;;5011654;28;20034;-43
2021/12/14 03:27:57;;;;;;;75.28;23.77;;;;;;;;;;5011487;28;20018;-43
2021/12/14 03:30:26;;;;;;;71.88;23.92;;;;;;;;;;5011550;28;20038;-43
2021/12/14 03:32:54;;;;;;;71.25;25.85;;;;;;;;;;5011545;28;20030;-43
2021/12/14 03:35:20;;;;;;;85.90;27.38;;;;;;;;;;4995196;28;20033;-43
2021/12/14 03:37:48;;;;;;;92.47;30.00;;;;;;;;;;5011491;28;20076;-42
2021/12/14 03:40:15;;;;;;;80.75;30.02;;;;;;;;;;5011476;28;20030;-43
2021/12/14 03:42:42;;;;;;;114.40;37.53;;;;;;;;;;5011305;28;20741;-43
2021/12/14 03:45:10;;;;;;;148.55;50.47;;;;;;;;;;5011372;28;20030;-42
2021/12/14 03:47:39;;;;;;;161.48;51.72;;;;;;;;;;5011395;28;20050;-44
2021/12/14 03:50:11;;;;;;;135.23;45.95;;;;;;;;;;5023363;28;20037;-42
2021/12/14 03:52:38;;;;;;;114.72;43.13;;;;;;;;;;5033021;28;20116;-43
2021/12/14 03:55:07;;;;;;;107.07;39.17;;;;;;;;;;5032964;28;20060;-43
2021/12/14 03:57:34;;;;;;;121.85;36.67;;;;;;;;;;5033220;28;20030;-42
2021/12/14 04:00:00;;;;;;;85.53;32.25;;;;;;;;;;5032933;28;20026;-44
2021/12/14 04:02:27;;;;;;;80.93;32.67;;;;;;;;;;5033473;28;20034;-43
2021/12/14 04:05:01;;;;;;;85.03;33.10;;;;;;;;;;5036941;28;20029;-43
2021/12/14 04:07:28;;;;;;;73.78;30.52;;;;;;;;;;5036994;28;20071;-42
2021/12/14 04:09:54;;;;;;;80.20;33.15;;;;;;;;;;5036719;28;20437;-43
2021/12/14 04:12:21;;;;;;;88.45;32.17;;;;;;;;;;5036755;28;20474;-42
2021/12/14 04:14:49;;;;;;;82.38;32.13;;;;;;;;;;5036644;28;20099;-43
2021/12/14 04:17:16;;;;;;;78.72;30.00;;;;;;;;;;5036467;28;20444;-42
2021/12/14 04:19:42;;;;;;;76.50;31.98;;;;;;;;;;5036601;28;20021;-43
2021/12/14 04:22:16;;;;;;;77.90;31.58;;;;;;;;;;5036542;28;20420;-43
2021/12/14 04:24:43;;;;;;;84.47;33.75;;;;;;;;;;5036576;28;20022;-42
2021/12/14 04:27:11;;;;;;;78.68;31.08;;;;;;;;;;5036612;28;20021;-42
2021/12/14 04:29:37;;;;;;;94.13;32.50;;;;;;;;;;5036518;28;20535;-44
2021/12/14 04:32:04;;;;;;;91.85;34.22;;;;;;;;;;5036456;28;20026;-42
2021/12/14 04:34:31;;;;;;;99.28;32.88;;;;;;;;;;5036806;28;20082;-43
2021/12/14 04:36:58;;;;;;;98.10;36.75;;;;;;;;;;5036367;28;20052;-43
2021/12/14 04:53:12;;;;;;;97.15;37.10;;;;;;;;;;5036492;28;20045;-41
2021/12/14 04:55:39;;;;;;;93.28;34.25;;;;;;;;;;5035716;28;20116;-42
2021/12/14 04:58:05;;;;;;;93.45;34.25;;;;;;;;;;5035848;28;20051;-42
2021/12/14 05:00:50;;;;;;;81.85;34.00;;;;;;;;;;5035870;28;20484;-42
2021/12/14 05:03:18;;;;;;;106.90;37.67;;;;;;;;;;5035740;28;20030;-42
2021/12/14 05:05:49;;;;;;;87.00;32.88;;;;;;;;;;5035668;28;20045;-43
2021/12/14 05:10:59;;;;;;;121.30;43.42;;;;;;;;;;5035612;28;20030;-42
2021/12/14 05:13:36;;;;;;;115.93;42.05;;;;;;;;;;5035523;28;20536;-42
2021/12/14 05:16:03;;;;;;;113.75;43.17;;;;;;;;;;5034766;28;20472;-44
2021/12/14 05:18:30;;;;;;;128.88;46.40;;;;;;;;;;5035517;28;20026;-44
2021/12/14 05:20:57;;;;;;;120.45;45.17;;;;;;;;;;5035559;28;20022;-43
2021/12/14 05:23:28;;;;;;;126.07;44.05;;;;;;;;;;5035610;28;20030;-43
2021/12/14 05:25:55;;;;;;;116.10;41.30;;;;;;;;;;5035497;28;20029;-43
2021/12/14 05:28:21;;;;;;;110.38;42.20;;;;;;;;;;5035400;28;20029;-43
2021/12/14 05:30:49;;;;;;;110.30;39.72;;;;;;;;;;5035483;28;20021;-44
2021/12/14 05:33:26;;;;;;;113.78;40.50;;;;;;;;;;5035268;28;20026;-43
2021/12/14 05:35:54;;;;;;;123.97;50.20;;;;;;;;;;5035183;28;20045;-47
2021/12/14 05:38:27;;;;;;;132.43;44.30;;;;;;;;;;5035174;28;20025;-44
2021/12/14 05:43:30;;;;;;;111.97;45.70;;;;;;;;;;5035261;28;20036;-44
2021/12/14 05:46:01;;;;;;;108.45;44.33;;;;;;;;;;5035098;28;20393;-43
2021/12/14 05:48:32;;;;;;;105.68;38.40;;;;;;;;;;5034857;28;20382;-42
2021/12/14 05:51:00;;;;;;;100.95;37.58;;;;;;;;;;5034977;28;20055;-43
2021/12/14 05:53:27;;;;;;;102.88;39.65;;;;;;;;;;5035000;28;20024;-42
2021/12/14 05:55:54;;;;;;;117.85;46.70;;;;;;;;;;5034659;28;20064;-42
2021/12/14 05:58:21;;;;;;;135.25;51.90;;;;;;;;;;5034744;28;20032;-42
2021/12/14 06:00:51;;;;;;;138.35;56.58;;;;;;;;;;5034779;28;20017;-42
2021/12/14 06:03:29;;;;;;;128.63;55.38;;;;;;;;;;5034631;28;20024;-42
2021/12/14 06:05:56;;;;;;;137.07;58.85;;;;;;;;;;5034735;28;20030;-42
2021/12/14 06:08:24;;;;;;;146.93;60.58;;;;;;;;;;5034767;28;20017;-42
2021/12/14 06:10:51;;;;;;;145.95;59.92;;;;;;;;;;5034885;28;20037;-43
2021/12/14 06:13:18;;;;;;;132.80;56.63;;;;;;;;;;5034457;28;20075;-42
2021/12/14 06:15:45;;;;;;;153.93;61.90;;;;;;;;;;5034165;28;20065;-43
2021/12/14 06:18:12;;;;;;;174.00;69.32;;;;;;;;;;5034643;28;20156;-42
2021/12/14 06:20:43;;;;;;;203.63;72.15;;;;;;;;;;5034393;28;20017;-42
2021/12/14 06:23:09;;;;;;;225.18;79.88;;;;;;;;;;5034472;28;20116;-44
2021/12/14 06:25:37;;;;;;;235.50;75.93;;;;;;;;;;5034440;28;20104;-43
2021/12/14 06:28:03;;;;;;;224.02;73.47;;;;;;;;;;5034500;28;20044;-43
2021/12/14 06:30:32;;;;;;;235.80;75.68;;;;;;;;;;5033959;28;20041;-44
2021/12/14 06:33:06;;;;;;;230.57;79.72;;;;;;;;;;5034250;28;20025;-43
2021/12/14 06:35:35;;;;;;;228.02;76.28;;;;;;;;;;5034105;28;20034;-43
2021/12/14 06:38:21;;;;;;;218.20;75.40;;;;;;;;;;5034208;28;20036;-43
2021/12/14 06:41:05;;;;;;;220.68;76.00;;;;;;;;;;5034064;28;20087;-43
2021/12/14 06:43:58;;;;;;;219.93;77.38;;;;;;;;;;5033932;28;20033;-43
2021/12/14 06:46:26;;;;;;;195.27;70.07;;;;;;;;;;5031481;28;20398;-42
2021/12/14 06:48:54;;;;;;;210.80;70.97;;;;;;;;;;5033804;28;20045;-42
2021/12/14 06:51:21;;;;;;;204.82;67.47;;;;;;;;;;5034126;28;20026;-42
2021/12/14 06:53:51;;;;;;;169.82;63.35;;;;;;;;;;5033968;28;20028;-42
2021/12/14 06:56:20;;;;;;;184.18;63.10;;;;;;;;;;5033980;28;20029;-42
2021/12/14 06:58:52;;;;;;;207.50;81.95;;;;;;;;;;5033758;28;20057;-43
2021/12/14 07:01:21;;;;;;;284.33;124.80;;;;;;;;;;5033749;28;20031;-42
2021/12/14 07:03:49;;;;;;;342.13;149.48;;;;;;;;;;5033845;28;20100;-42
2021/12/14 07:06:27;;;;;;;415.80;165.38;;;;;;;;;;5033856;28;20113;-42
2021/12/14 07:08:54;;;;;;;293.42;109.90;;;;;;;;;;5032384;28;20040;-43
2021/12/14 07:11:22;;;;;;;255.95;103.68;;;;;;;;;;5033698;28;20155;-42
2021/12/14 07:13:48;;;;;;;312.83;137.40;;;;;;;;;;5033892;28;20025;-42
2021/12/14 07:16:20;;;;;;;225.82;93.63;;;;;;;;;;5033374;28;20564;-42
2021/12/14 07:18:53;;;;;;;179.70;73.30;;;;;;;;;;5033630;28;20039;-43
2021/12/14 07:21:43;;;;;;;183.00;68.53;;;;;;;;;;5033474;28;20022;-43
2021/12/14 07:24:24;;;;;;;191.43;71.10;;;;;;;;;;4972786;28;20045;-43
2021/12/14 07:26:50;;;;;;;;;;;;;;;;;;4973133;28;20039;-42
2021/12/14 07:29:25;;;;;;;182.68;72.32;;;;;;;;;;4972558;28;19906;-44
2021/12/14 07:31:51;;;;;;;175.95;71.68;;;;;;;;;;4972577;28;20031;-43
2021/12/14 07:34:21;;;;;;;149.55;57.47;;;;;;;;;;4972409;28;20038;-43
2021/12/14 07:36:47;;;;;;;133.63;53.20;;;;;;;;;;4972673;28;20042;-43
2021/12/14 07:39:16;;;;;;;112.78;47.80;;;;;;;;;;4978686;28;20173;-43
2021/12/14 07:41:44;;;;;;;140.65;52.83;;;;;;;;;;4979034;28;20057;-43
2021/12/14 07:44:12;;;;;;;93.43;39.63;;;;;;;;;;4978794;28;20045;-43
2021/12/14 07:46:44;;;;;;;88.28;42.90;;;;;;;;;;4979016;28;20042;-42
2021/12/14 07:49:21;;;;;;;70.55;37.30;;;;;;;;;;4979223;28;20077;-45
2021/12/14 07:51:49;;;;;;;76.80;40.83;;;;;;;;;;4978780;28;20515;-43
2021/12/14 07:54:18;;;;;;;66.40;36.08;;;;;;;;;;4978767;28;20419;-43
2021/12/14 07:56:46;;;;;;;68.68;41.13;;;;;;;;;;4978673;28;20042;-42
2021/12/14 07:59:25;;;;;;;68.18;41.53;;;;;;;;;;4978751;28;20042;-42
2021/12/14 08:02:07;;;;;;;55.42;32.28;;;;;;;;;;5027911;28;20045;-42
2021/12/14 08:04:34;;;;;;;67.22;38.67;;;;;;;;;;5039693;28;20068;-43
2021/12/14 08:07:01;;;;;;;62.80;37.45;;;;;;;;;;5039566;28;20044;-42
2021/12/14 08:09:44;;;;;;;96.15;50.90;;;;;;;;;;5039502;28;20022;-42
2021/12/14 08:12:12;;;;;;;95.53;51.72;;;;;;;;;;5039650;28;20018;-44
2021/12/14 08:14:38;;;;;;;119.03;64.93;;;;;;;;;;5039621;28;20144;-47
2021/12/14 08:17:09;;;;;;;71.32;40.95;;;;;;;;;;5039206;28;20057;-39
2021/12/14 08:19:37;;;;;;;74.95;37.22;;;;;;;;;;5039532;28;20385;-41
2021/12/14 08:22:26;;;;;;;80.30;39.72;;;;;;;;;;5038408;28;20029;-39
2021/12/14 08:24:53;;;;;;;68.97;37.72;;;;;;;;;;5031687;28;20033;-39
2021/12/14 08:27:22;;;;;;;60.08;33.42;;;;;;;;;;5039298;28;20478;-40
2021/12/14 08:29:49;;;;;;;61.55;34.55;;;;;;;;;;5039426;28;20025;-38
2021/12/14 08:32:20;;;;;;;83.72;42.78;;;;;;;;;;5039380;28;20547;-39
2021/12/14 08:34:47;;;;;;;129.02;64.57;;;;;;;;;;5039560;28;20026;-40
2021/12/14 08:37:15;;;;;;;125.05;60.35;;;;;;;;;;5039452;28;20080;-39
2021/12/14 08:39:49;;;;;;;126.15;60.30;;;;;;;;;;5039296;28;20025;-39
2021/12/14 08:42:21;;;;;;;102.03;53.20;;;;;;;;;;5039377;28;20030;-40
2021/12/14 08:44:53;;;;;;;80.78;42.25;;;;;;;;;;5039687;28;20067;-40
2021/12/14 08:47:40;;;;;;;80.18;43.20;;;;;;;;;;5039221;28;20021;-39
2021/12/14 08:50:09;;;;;;;70.97;38.25;;;;;;;;;;5035822;28;20018;-39
2021/12/14 08:52:35;;;;;;;69.30;38.05;;;;;;;;;;5036195;28;20041;-41
2021/12/14 08:55:04;;;;;;;75.05;39.17;;;;;;;;;;5036027;28;20021;-43
2021/12/14 08:57:32;;;;;;;64.50;37.05;;;;;;;;;;5036469;28;20033;-42
2021/12/14 09:00:01;;;;;;;76.63;42.60;;;;;;;;;;5035992;28;20449;-42
2021/12/14 09:02:30;;;;;;;83.93;46.05;;;;;;;;;;5036064;28;20029;-42
2021/12/14 09:05:02;;;;;;;69.07;38.85;;;;;;;;;;5035893;28;20024;-41
2021/12/14 09:07:28;;;;;;;;;;;;;;;;;;5034966;28;20107;-40
2021/12/14 09:09:54;;;;;;;59.50;33.60;;;;;;;;;;5035888;28;19948;-42
2021/12/14 09:12:41;;;;;;;69.60;35.58;;;;;;;;;;5035728;28;20068;-42
2021/12/14 09:15:09;;;;;;;55.70;32.75;;;;;;;;;;5035900;28;20444;-42
2021/12/14 09:17:36;;;;;;;48.53;29.30;;;;;;;;;;5035455;28;20132;-41
2021/12/14 09:20:10;;;;;;;38.17;25.08;;;;;;;;;;5035586;28;20029;-41
2021/12/14 09:22:41;;;;;;;54.63;31.33;;;;;;;;;;5035653;28;20029;-41
2021/12/14 09:25:10;;;;;;;57.03;31.88;;;;;;;;;;5035471;28;20124;-42
2021/12/14 09:27:36;;;;;;;52.60;32.28;;;;;;;;;;5035927;28;20044;-41
2021/12/14 09:30:03;;;;;;;50.28;31.48;;;;;;;;;;5035472;28;20022;-42
2021/12/14 09:32:29;;;;;;;48.95;31.38;;;;;;;;;;5035468;28;20030;-41
2021/12/14 09:34:57;;;;;;;51.65;32.70;;;;;;;;;;5035497;28;20045;-42
2021/12/14 09:37:24;;;;;;;64.32;38.90;;;;;;;;;;5035174;28;20083;-41
2021/12/14 09:39:55;;;;;;;56.30;35.17;;;;;;;;;;5035216;28;20018;-41
2021/12/14 09:42:25;;;;;;;57.63;36.45;;;;;;;;;;5035395;28;20041;-42
2021/12/14 09:44:52;;;;;;;55.00;33.45;;;;;;;;;;5035357;28;20068;-42
2021/12/14 09:47:21;;;;;;;64.35;37.97;;;;;;;;;;5035137;28;20481;-42
2021/12/14 09:49:49;;;;;;;70.05;37.13;;;;;;;;;;5034891;28;20159;-41
2021/12/14 09:52:23;;;;;;;66.20;37.65;;;;;;;;;;5034988;28;20536;-42
2021/12/14 09:54:50;;;;;;;85.80;43.17;;;;;;;;;;5034960;28;20025;-42
2021/12/14 09:57:20;;;;;;;68.60;38.88;;;;;;;;;;5035283;28;20113;-43
2021/12/14 09:59:46;;;;;;;56.15;32.00;;;;;;;;;;5034884;28;20469;-43
2021/12/14 10:02:18;;;;;;;62.03;36.05;;;;;;;;;;5034402;28;20025;-42
2021/12/14 10:04:55;;;;;;;50.60;31.52;;;;;;;;;;5034831;28;20025;-42
2021/12/14 10:07:22;;;;;;;64.60;38.25;;;;;;;;;;5035072;28;20033;-42
2021/12/14 10:09:49;;;;;;;53.97;32.13;;;;;;;;;;5034962;28;20428;-42
2021/12/14 10:14:50;;;;;;;92.43;50.10;;;;;;;;;;5034355;28;20030;-41
2021/12/14 10:17:18;;;;;;;103.18;53.13;;;;;;;;;;5033184;28;20053;-43
2021/12/14 10:19:45;;;;;;;72.68;40.65;;;;;;;;;;5034326;28;20034;-44
2021/12/14 10:22:16;;;;;;;97.45;51.90;;;;;;;;;;5034676;28;20025;-44
2021/12/14 10:24:43;;;;;;;54.90;35.15;;;;;;;;;;5034601;28;20029;-44
2021/12/14 10:27:15;;;;;;;49.38;31.45;;;;;;;;;;5034588;28;20022;-43
2021/12/14 10:29:42;;;;;;;56.55;33.58;;;;;;;;;;5034521;28;20029;-43
2021/12/14 10:32:14;;;;;;;46.97;31.65;;;;;;;;;;5034294;28;20104;-42
2021/12/14 10:34:41;;;;;;;45.97;29.98;;;;;;;;;;5034485;28;20492;-42
2021/12/14 10:37:16;;;;;;;60.88;36.70;;;;;;;;;;5034216;28;20037;-42
2021/12/14 10:45:10;;;;;;;70.05;39.78;;;;;;;;;;5034293;28;20052;-43
2021/12/14 10:47:36;;;;;;;66.20;40.90;;;;;;;;;;5033916;28;20512;-42
2021/12/14 10:50:06;;;;;;;92.28;51.80;;;;;;;;;;5034122;28;20021;-43
2021/12/14 10:52:33;;;;;;;114.60;66.18;;;;;;;;;;5034150;28;20462;-43
2021/12/14 10:55:01;;;;;;;108.47;61.03;;;;;;;;;;5033900;28;20025;-43
2021/12/14 10:57:32;;;;;;;86.22;49.50;;;;;;;;;;5033810;28;20033;-42
2021/12/14 11:00:01;;;;;;;84.32;47.83;;;;;;;;;;5033749;28;20080;-42
2021/12/14 11:02:28;;;;;;;91.85;52.72;;;;;;;;;;5033955;28;20512;-43
2021/12/14 11:04:59;;;;;;;93.15;49.50;;;;;;;;;;5033728;28;20021;-44
2021/12/14 11:07:25;;;;;;;87.20;50.55;;;;;;;;;;5033862;28;20060;-43
2021/12/14 11:09:55;;;;;;;93.40;51.22;;;;;;;;;;5033611;28;20109;-43
2021/12/14 11:12:24;;;;;;;83.47;46.90;;;;;;;;;;5033026;28;20025;-43
2021/12/14 11:14:52;;;;;;;74.03;43.70;;;;;;;;;;5033751;28;20060;-43
2021/12/14 11:20:16;;;;;;;80.07;46.93;;;;;;;;;;5033820;28;20392;-42
2021/12/14 11:22:49;;;;;;;81.75;48.70;;;;;;;;;;5033434;28;20025;-42
2021/12/14 11:25:21;;;;;;;84.45;47.85;;;;;;;;;;5032044;28;20033;-43
2021/12/14 11:27:48;;;;;;;84.50;48.90;;;;;;;;;;5033713;28;20056;-42
2021/12/14 11:30:17;;;;;;;87.85;50.88;;;;;;;;;;5033369;28;20021;-41
2021/12/14 11:32:44;;;;;;;81.43;49.28;;;;;;;;;;5033436;28;20426;-42
2021/12/14 11:35:19;;;;;;;81.28;48.50;;;;;;;;;;5033259;28;20496;-42
2021/12/14 11:37:47;;;;;;;89.53;54.90;;;;;;;;;;5032701;28;20047;-42
2021/12/14 11:40:15;;;;;;;100.15;58.05;;;;;;;;;;5032757;28;20092;-42
2021/12/14 11:42:41;;;;;;;105.35;59.75;;;;;;;;;;5032470;28;20021;-42
2021/12/14 11:45:16;;;;;;;109.18;63.35;;;;;;;;;;5031724;28;20053;-42
2021/12/14 11:47:46;;;;;;;98.88;56.75;;;;;;;;;;5033085;28;20033;-42
2021/12/14 11:50:13;;;;;;;90.10;50.63;;;;;;;;;;5033134;28;20032;-42
2021/12/14 11:52:57;;;;;;;103.80;57.97;;;;;;;;;;5033281;28;20486;-42
2021/12/14 11:55:24;;;;;;;127.40;69.90;;;;;;;;;;5033157;28;20025;-43
2021/12/14 11:58:01;;;;;;;97.55;54.33;;;;;;;;;;5032990;28;20121;-42
2021/12/14 12:00:28;;;;;;;87.72;50.70;;;;;;;;;;5032926;28;20524;-42
2021/12/14 12:02:54;;;;;;;87.45;49.38;;;;;;;;;;5033187;28;20025;-43
2021/12/14 12:05:31;;;;;;;73.72;44.13;;;;;;;;;;5033098;28;20415;-42
2021/12/14 12:11:08;;;;;;;91.03;48.40;;;;;;;;;;5010914;28;20046;-43
2021/12/14 12:13:35;;;;;;;75.93;42.38;;;;;;;;;;5011030;28;20502;-42
2021/12/14 12:16:09;;;;;;;97.43;51.47;;;;;;;;;;5010752;28;20128;-42
2021/12/14 12:18:35;;;;;;;94.95;50.60;;;;;;;;;;4994713;28;20502;-41
2021/12/14 12:21:04;;;;;;;83.15;47.05;;;;;;;;;;5011017;28;20037;-42
2021/12/14 12:23:35;;;;;;;98.68;51.75;;;;;;;;;;5011422;28;20030;-43
2021/12/14 12:26:09;;;;;;;90.55;48.78;;;;;;;;;;5014753;28;20058;-42
2021/12/14 12:28:43;;;;;;;84.05;48.13;;;;;;;;;;5014553;28;20026;-43
2021/12/14 12:31:15;;;;;;;90.65;50.83;;;;;;;;;;5014564;28;20443;-42
2021/12/14 12:33:44;;;;;;;79.55;43.10;;;;;;;;;;5014507;28;20064;-43
2021/12/14 12:36:15;;;;;;;69.60;38.70;;;;;;;;;;5014378;28;20034;-42
2021/12/14 12:38:50;;;;;;;68.13;38.55;;;;;;;;;;5014480;28;20037;-41
2021/12/14 12:41:26;;;;;;;82.45;45.08;;;;;;;;;;5014337;28;20077;-41
2021/12/14 12:44:10;;;;;;;93.10;49.72;;;;;;;;;;5014127;28;20076;-41
2021/12/14 12:46:39;;;;;;;93.97;49.92;;;;;;;;;;5016130;28;20042;-42
2021/12/14 12:49:11;;;;;;;100.47;52.13;;;;;;;;;;5036297;28;20093;-41
2021/12/14 12:51:56;;;;;;;101.78;52.75;;;;;;;;;;5036045;28;20477;-42
2021/12/14 12:54:40;;;;;;;97.13;51.47;;;;;;;;;;5036118;28;20025;-42
2021/12/14 12:57:43;;;;;;;99.53;50.63;;;;;;;;;;5035738;28;20033;-42
2021/12/14 13:00:15;;;;;;;101.80;52.05;;;;;;;;;;5035578;28;20021;-41
2021/12/14 13:02:47;;;;;;;105.47;52.25;;;;;;;;;;5035948;28;20036;-42
2021/12/14 13:05:25;;;;;;;109.50;54.72;;;;;;;;;;5036192;28;20021;-41
2021/12/14 13:07:51;;;;;;;104.88;50.65;;;;;;;;;;5035409;28;20426;-42
2021/12/14 13:10:30;;;;;;;102.75;50.10;;;;;;;;;;5035755;28;20477;-44
2021/12/14 13:13:05;;;;;;;96.63;47.35;;;;;;;;;;5035783;28;20056;-42
2021/12/14 13:15:31;;;;;;;104.95;50.58;;;;;;;;;;5034466;28;20501;-40
2021/12/14 13:18:16;;;;;;;118.10;56.40;;;;;;;;;;5035597;28;20041;-43
2021/12/14 13:20:44;;;;;;;115.38;55.50;;;;;;;;;;5035524;28;20026;-42
2021/12/14 13:23:10;;;;;;;123.60;58.28;;;;;;;;;;5035481;28;20029;-42
2021/12/14 13:25:38;;;;;;;120.80;61.72;;;;;;;;;;5035538;28;20068;-42
2021/12/14 13:28:05;;;;;;;125.13;61.67;;;;;;;;;;5035519;28;20466;-42
2021/12/14 13:30:31;;;;;;;137.95;63.30;;;;;;;;;;5035844;28;20033;-42
2021/12/14 13:32:58;;;;;;;139.70;64.38;;;;;;;;;;5035273;28;20029;-44
2021/12/14 13:35:27;;;;;;;146.95;65.60;;;;;;;;;;5034529;28;20029;-43
2021/12/14 13:38:05;;;;;;;162.20;72.70;;;;;;;;;;5035292;28;20034;-45
2021/12/14 13:40:37;;;;;;;175.10;74.20;;;;;;;;;;5019017;28;20057;-41
2021/12/14 13:43:09;;;;;;;171.75;77.43;;;;;;;;;;5005238;28;20071;-43
2021/12/14 13:45:37;;;;;;;175.23;78.85;;;;;;;;;;5004877;28;20541;-43
2021/12/14 13:48:05;;;;;;;169.52;75.78;;;;;;;;;;5004819;28;20546;-43
2021/12/14 13:50:34;;;;;;;185.30;80.18;;;;;;;;;;5004915;28;21167;-42
2021/12/14 13:53:00;;;;;;;221.15;88.43;;;;;;;;;;5004597;28;20026;-43
2021/12/14 13:55:35;;;;;;;201.23;86.75;;;;;;;;;;5004736;28;20120;-43
2021/12/14 13:58:07;;;;;;;238.55;94.22;;;;;;;;;;5004749;28;20477;-42
2021/12/14 14:00:33;;;;;;;;;;;;;;;;;;5005043;28;20030;-39
2021/12/14 14:02:59;;;;;;;188.15;74.05;;;;;;;;;;5004210;28;19909;-43
2021/12/14 14:05:26;;;;;;;191.63;80.82;;;;;;;;;;5004330;28;20183;-42
2021/12/14 14:07:55;;;;;;;220.30;84.82;;;;;;;;;;5004699;28;20526;-43
2021/12/14 14:10:22;;;;;;;271.65;101.05;;;;;;;;;;5004124;28;20398;-43
2021/12/14 14:12:53;;;;;;;252.13;93.35;;;;;;;;;;5004403;28;20034;-42
2021/12/14 14:15:21;;;;;;;221.15;88.95;;;;;;;;;;5006034;28;20477;-43
2021/12/14 14:17:50;;;;;;;222.43;90.78;;;;;;;;;;5001978;28;20066;-42
2021/12/14 14:20:25;;;;;;;206.55;81.15;;;;;;;;;;5001921;28;20044;-44
2021/12/14 14:22:51;;;;;;;203.00;77.68;;;;;;;;;;5004127;28;20389;-45
2021/12/14 14:25:26;;;;;;;212.68;85.00;;;;;;;;;;5004203;28;20025;-44
2021/12/14 14:28:00;;;;;;;213.70;85.45;;;;;;;;;;5004047;28;20186;-42
2021/12/14 14:30:50;;;;;;;210.30;83.03;;;;;;;;;;5003874;28;20351;-43
2021/12/14 14:33:20;;;;;;;251.52;81.32;;;;;;;;;;5003854;28;20034;-45
2021/12/14 14:35:52;;;;;;;229.48;81.15;;;;;;;;;;5004450;28;20579;-38
2021/12/14 14:38:39;;;;;;;221.60;83.32;;;;;;;;;;5003948;28;20453;-38
2021/12/14 14:41:08;;;;;;;209.00;79.45;;;;;;;;;;5003783;28;20030;-39
2021/12/14 14:43:53;;;;;;;241.95;94.88;;;;;;;;;;5003879;28;20550;-43
2021/12/14 14:46:49;;;;;;;235.57;85.70;;;;;;;;;;5003396;28;20415;-43
2021/12/14 14:49:18;;;;;;;225.63;85.32;;;;;;;;;;4980619;28;20117;-40
2021/12/14 14:51:51;;;;;;;237.55;88.50;;;;;;;;;;4981253;28;20087;-41
2021/12/14 14:54:41;;;;;;;227.52;86.85;;;;;;;;;;4981346;28;20042;-41
2021/12/14 14:57:14;;;;;;;237.50;82.17;;;;;;;;;;4941252;28;20136;-41
2021/12/14 15:00:06;;;;;;;270.38;84.88;;;;;;;;;;4941950;28;20273;-40
2021/12/14 15:02:33;;;;;;;240.77;84.68;;;;;;;;;;4941812;28;20471;-42
2021/12/14 15:05:19;;;;;;;239.70;90.88;;;;;;;;;;4941880;28;20027;-41
2021/12/14 15:07:51;;;;;;;236.65;91.32;;;;;;;;;;4941591;28;20042;-42
2021/12/14 15:10:19;;;;;;;247.57;95.40;;;;;;;;;;4941980;28;20035;-43
2021/12/14 15:13:07;;;;;;;263.95;97.90;;;;;;;;;;4942282;28;20046;-41
2021/12/14 15:15:33;;;;;;;255.07;94.15;;;;;;;;;;4941773;28;20075;-42
2021/12/14 15:18:00;;;;;;;305.73;103.45;;;;;;;;;;4941409;28;20161;-42
2021/12/14 15:20:33;;;;;;;288.73;100.78;;;;;;;;;;4941225;28;20062;-41